Time;durP1;ratioP1;P1;durP2;ratioP2;P2;SDS_P1;SDS_P2;PMS_P1;PMS_P2;Temp;Humidity;BMP_temperature;BMP_pressure;BME280_temperature;BME280_humidity;BME280_pressure;Samples;Min_cycle;Max_cycle;Signal;HPM_P1;HPM_P2
2023/02/22 00:02:27;;;;;;;13.07;10.37;;;3.90;99.90;;;4.72;99.07;97874.00;5252680;28;20265;-80
2023/02/22 00:05:01;;;;;;;10.30;9.20;;;3.80;99.90;;;4.66;98.80;97868.44;5252118;28;20205;-81
2023/02/22 00:07:34;;;;;;;10.60;9.60;;;3.80;99.90;;;4.62;98.96;97866.47;5253280;28;20200;-81
2023/02/22 00:10:12;;;;;;;10.67;9.57;;;3.70;99.90;;;4.53;99.82;97866.59;5259524;28;20209;-79
2023/02/22 00:12:48;;;;;;;11.03;9.70;;;3.70;99.90;;;4.49;99.89;97868.00;5245552;28;20230;-81
2023/02/22 00:15:26;;;;;;;10.20;9.17;;;3.70;99.90;;;4.49;100.00;97865.47;5255408;28;20207;-82
2023/02/22 00:18:00;;;;;;;8.87;7.97;;;3.70;99.90;;;4.45;99.53;97862.56;5252027;28;20207;-81
2023/02/22 00:20:33;;;;;;;8.07;7.27;;;3.60;99.90;;;4.41;99.66;97861.44;5253817;28;20211;-81
2023/02/22 00:23:08;;;;;;;8.07;7.20;;;3.50;99.90;;;4.35;99.60;97866.00;5246666;28;20335;-80
2023/02/22 00:25:41;;;;;;;7.67;6.97;;;3.40;99.90;;;4.27;99.33;97865.38;5253261;28;20672;-81
2023/02/22 00:28:17;;;;;;;6.97;6.37;;;3.40;99.90;;;4.21;99.87;97866.53;5249036;28;20203;-81
2023/02/22 00:30:53;;;;;;;7.73;6.93;;;3.30;99.90;;;4.16;100.00;97867.81;5250054;28;20758;-79
2023/02/22 00:33:27;;;;;;;7.60;6.90;;;3.30;99.90;;;4.12;100.00;97865.78;5251455;28;20272;-79
2023/02/22 00:36:00;;;;;;;7.90;7.10;;;3.30;99.90;;;4.13;100.00;97867.56;5253713;28;20207;-79
2023/02/22 00:38:33;;;;;;;9.37;8.57;;;3.30;99.90;;;4.06;100.00;97872.13;5253878;28;20743;-79
2023/02/22 00:41:07;;;;;;;10.27;8.13;;;3.20;99.90;;;4.04;100.00;97858.47;5255433;28;20265;-79
2023/02/22 00:43:41;;;;;;;9.40;8.40;;;3.20;99.90;;;4.05;100.00;97864.38;5248799;28;20322;-79
2023/02/22 00:46:15;;;;;;;9.47;8.53;;;3.20;99.90;;;4.02;100.00;97856.56;5260122;28;20727;-81
2023/02/22 00:48:48;;;;;;;10.03;9.10;;;3.20;99.90;;;4.05;100.00;97849.22;5252616;28;20338;-79
2023/02/22 00:51:22;;;;;;;11.00;10.00;;;3.30;99.90;;;4.07;100.00;97856.19;5256468;28;20624;-80
2023/02/22 00:53:55;;;;;;;13.13;11.23;;;3.40;99.90;;;4.11;100.00;97853.91;5248906;28;20286;-81
2023/02/22 00:56:28;;;;;;;12.20;10.77;;;3.40;99.90;;;4.19;100.00;97856.28;5246664;28;20199;-79
2023/02/22 00:59:04;;;;;;;10.17;9.27;;;3.50;99.90;;;4.24;100.00;97857.56;5244797;28;20962;-80
2023/02/22 01:01:37;;;;;;;9.17;8.30;;;3.50;99.90;;;4.23;100.00;97858.28;5255852;28;20700;-81
2023/02/22 01:04:10;;;;;;;9.10;8.20;;;3.40;99.90;;;4.15;100.00;97845.78;5253202;28;20201;-82
2023/02/22 01:06:43;;;;;;;9.87;7.63;;;3.40;99.90;;;4.10;100.00;97842.91;5244103;28;20635;-83
2023/02/22 01:09:17;;;;;;;8.43;7.70;;;3.30;99.90;;;4.04;100.00;97848.34;5243067;28;20238;-79
2023/02/22 01:11:55;;;;;;;8.70;8.00;;;3.20;99.90;;;4.02;100.00;97843.91;5245092;28;20283;-79
2023/02/22 01:14:29;;;;;;;8.67;7.47;;;3.10;99.90;;;3.98;100.00;97842.78;5239555;22;20633;-80
2023/02/22 01:17:03;;;;;;;8.80;7.80;;;3.10;99.90;;;3.91;100.00;97849.72;5221057;28;20210;-79
2023/02/22 01:19:36;;;;;;;8.23;7.27;;;3.00;99.90;;;3.86;100.00;97846.81;5219284;28;20621;-79
2023/02/22 01:22:10;;;;;;;8.67;7.77;;;3.00;99.90;;;3.80;100.00;97846.31;5212344;28;20299;-79
2023/02/22 01:24:43;;;;;;;8.17;7.47;;;3.00;99.90;;;3.74;100.00;97844.16;5205242;28;20210;-80
2023/02/22 01:27:18;;;;;;;8.40;7.60;;;2.90;99.90;;;3.69;100.00;97836.97;5197296;28;20701;-81
2023/02/22 01:29:52;;;;;;;9.93;9.00;;;2.90;99.90;;;3.66;100.00;97832.53;5196959;28;20208;-81
2023/02/22 01:32:25;;;;;;;10.30;9.30;;;2.90;99.90;;;3.66;100.00;97830.00;5200814;28;20290;-80
2023/02/22 01:34:59;;;;;;;12.33;10.80;;;2.90;99.90;;;3.70;100.00;97834.56;5195910;28;20206;-80
2023/02/22 01:37:32;;;;;;;10.07;9.03;;;3.00;99.90;;;3.72;100.00;97833.06;5198154;28;20214;-80
2023/02/22 01:40:09;;;;;;;10.03;9.13;;;3.10;99.90;;;3.76;100.00;97826.59;5196820;28;20205;-78
2023/02/22 01:42:44;;;;;;;9.60;8.70;;;3.00;99.90;;;3.81;100.00;97830.41;5197407;28;20226;-79
2023/02/22 01:45:43;;;;;;;9.57;8.50;;;3.00;99.90;;;3.78;100.00;97818.41;5203189;28;20213;-80
2023/02/22 01:48:23;;;;;;;10.30;9.40;;;3.00;99.90;;;3.88;100.00;97814.09;5193829;28;20212;-79
2023/02/22 01:51:01;;;;;;;12.17;10.87;;;3.10;99.90;;;3.77;100.00;97805.63;5198789;28;20210;-81
2023/02/22 01:53:40;;;;;;;11.03;10.03;;;3.10;99.90;;;3.73;100.00;97806.13;5209052;28;20232;-81
2023/02/22 01:56:14;;;;;;;13.27;11.10;;;3.10;99.90;;;3.77;100.00;97801.44;5197331;28;20202;-80
2023/02/22 01:58:50;;;;;;;10.70;9.60;;;3.20;99.90;;;3.84;100.00;97806.25;5202048;28;20203;-79
2023/02/22 02:01:26;;;;;;;10.73;9.63;;;3.20;99.90;;;3.87;100.00;97803.09;5201210;28;20640;-79
2023/02/22 02:04:06;;;;;;;10.67;9.57;;;3.20;99.90;;;3.89;100.00;97801.56;5201613;28;20355;-80
2023/02/22 02:06:41;;;;;;;11.80;10.57;;;3.20;99.90;;;3.88;100.00;97793.88;5206783;28;20467;-81
2023/02/22 02:09:21;;;;;;;11.27;10.07;;;3.30;99.90;;;3.95;100.00;97788.53;5210975;28;20218;-79
2023/02/22 02:11:55;;;;;;;11.30;10.27;;;3.30;99.90;;;4.01;100.00;97797.53;5195444;28;20237;-80
2023/02/22 02:14:30;;;;;;;11.30;10.20;;;3.30;99.90;;;3.95;100.00;97799.56;5198576;28;20207;-81
2023/02/22 02:17:05;;;;;;;13.37;11.20;;;3.30;99.90;;;3.88;100.00;97797.28;5197904;28;20598;-81
2023/02/22 02:19:54;;;;;;;14.80;13.23;;;3.20;99.90;;;3.91;100.00;97805.09;5204500;28;20670;-79
2023/02/22 02:22:43;;;;;;;15.37;13.47;;;3.20;99.90;;;3.92;100.00;97791.72;5199968;28;20227;-79
2023/02/22 02:26:02;;;;;;;17.50;14.80;;;3.20;99.90;;;3.77;100.00;97793.88;5203619;28;20653;-79
2023/02/22 02:29:17;;;;;;;14.23;12.63;;;3.10;99.90;;;3.65;100.00;97789.47;5191132;28;20209;-79
2023/02/22 02:32:29;;;;;;;15.03;13.43;;;3.00;99.90;;;3.64;100.00;97785.19;5196568;28;20708;-80
2023/02/22 02:35:10;;;;;;;17.50;14.37;;;3.00;99.90;;;3.68;100.00;97789.72;5201635;28;20259;-80
2023/02/22 02:37:52;;;;;;;14.87;13.20;;;3.00;99.90;;;3.73;100.00;97785.91;5197647;28;20661;-78
2023/02/22 02:40:35;;;;;;;15.07;12.50;;;3.10;99.90;;;3.74;100.00;97786.03;5202343;28;20450;-79
2023/02/22 02:43:17;;;;;;;14.60;13.03;;;3.10;99.90;;;3.80;100.00;97781.47;5203448;28;20720;-79
2023/02/22 02:45:57;;;;;;;14.80;13.17;;;3.00;99.90;;;3.79;100.00;97781.38;5206852;28;20255;-78
2023/02/22 02:48:34;;;;;;;14.10;11.30;;;3.00;99.90;;;3.73;100.00;97773.28;5201247;28;20206;-80
2023/02/22 02:51:13;;;;;;;13.77;12.20;;;3.00;99.90;;;3.68;100.00;97774.53;5198996;28;20716;-80
2023/02/22 02:53:50;;;;;;;12.33;10.93;;;2.90;99.90;;;3.63;100.00;97761.53;5203720;28;20252;-80
2023/02/22 02:56:23;;;;;;;11.90;10.80;;;2.80;99.90;;;3.59;100.00;97760.38;5201269;28;20208;-80
2023/02/22 02:58:57;;;;;;;13.47;12.20;;;2.80;99.90;;;3.56;100.00;97760.16;5200871;28;20200;-80
2023/02/22 03:01:47;;;;;;;11.03;9.97;;;2.80;99.90;;;3.59;100.00;97760.38;5196522;28;20211;-80
2023/02/22 03:04:37;;;;;;;9.40;8.57;;;2.70;99.90;;;3.56;100.00;97755.09;5202528;28;20684;-80
2023/02/22 03:07:46;;;;;;;9.60;8.60;;;2.70;99.90;;;3.50;100.00;97757.13;5196629;28;20311;-80
2023/02/22 03:10:45;;;;;;;8.93;8.03;;;2.60;99.90;;;3.38;100.00;97751.94;5161215;28;20204;-81
2023/02/22 03:13:30;;;;;;;9.10;7.60;;;2.50;99.90;;;3.33;100.00;97749.78;5201675;28;20232;-81
2023/02/22 03:16:16;;;;;;;8.70;7.83;;;2.50;99.90;;;3.27;100.00;97746.75;5199847;28;20207;-81
2023/02/22 03:18:56;;;;;;;9.03;8.20;;;2.50;99.90;;;3.24;100.00;97744.88;5195410;28;20206;-79
2023/02/22 03:21:35;;;;;;;8.00;7.33;;;2.40;99.90;;;3.25;100.00;97738.16;5195891;28;20232;-81
2023/02/22 03:24:13;;;;;;;8.93;8.13;;;2.40;99.90;;;3.27;100.00;97746.75;5193094;28;20228;-81
2023/02/22 03:26:53;;;;;;;9.17;8.27;;;2.40;99.90;;;3.24;100.00;97741.47;5200341;28;20198;-80
2023/02/22 03:29:35;;;;;;;7.90;7.20;;;2.40;99.90;;;3.25;100.00;97736.53;5199345;28;20268;-81
2023/02/22 03:32:15;;;;;;;8.20;7.50;;;2.30;99.90;;;3.17;100.00;97737.53;5199166;28;20327;-81
2023/02/22 03:34:56;;;;;;;7.80;7.00;;;2.20;99.90;;;3.17;100.00;97733.34;5201574;28;20711;-81
2023/02/22 03:37:36;;;;;;;8.40;7.60;;;2.20;99.90;;;2.93;100.00;97733.84;5200963;28;20783;-80
2023/02/22 03:40:15;;;;;;;9.33;8.53;;;2.10;99.90;;;2.84;100.00;97736.47;5197678;28;20831;-80
2023/02/22 03:42:53;;;;;;;8.47;7.67;;;2.10;99.90;;;2.84;100.00;97736.47;5203142;28;20502;-79
2023/02/22 03:45:29;;;;;;;9.37;8.47;;;2.10;99.90;;;2.79;100.00;97734.31;5197112;28;20234;-80
2023/02/22 03:48:09;;;;;;;9.73;8.37;;;2.00;99.90;;;2.81;100.00;97730.28;5198157;28;20563;-81
2023/02/22 03:50:42;;;;;;;8.60;7.80;;;2.10;99.90;;;2.81;100.00;97727.78;5198345;28;20283;-79
2023/02/22 03:53:18;;;;;;;8.37;7.60;;;2.10;99.90;;;2.86;100.00;97723.97;5195927;28;20256;-81
2023/02/22 03:55:56;;;;;;;9.00;8.20;;;2.10;99.90;;;2.87;100.00;97726.63;5203385;28;20212;-80
2023/02/22 03:58:33;;;;;;;7.93;7.23;;;2.00;99.90;;;2.81;100.00;97731.19;5194481;28;20252;-80
2023/02/22 04:01:06;;;;;;;8.90;8.03;;;2.00;99.90;;;2.81;100.00;97731.19;5198305;28;20263;-81
2023/02/22 04:03:41;;;;;;;8.63;7.83;;;2.00;99.90;;;2.76;100.00;97731.53;5195542;28;21051;-81
2023/02/22 04:06:14;;;;;;;8.40;7.70;;;2.00;99.90;;;2.73;100.00;97724.59;5198174;28;20208;-81
2023/02/22 04:08:49;;;;;;;9.33;8.43;;;1.90;99.90;;;2.74;100.00;97725.47;5196675;28;20206;-80
2023/02/22 04:11:22;;;;;;;9.17;8.13;;;2.00;99.90;;;2.79;100.00;97731.78;5194452;28;20217;-81
2023/02/22 04:13:57;;;;;;;10.23;9.33;;;2.00;99.90;;;2.79;100.00;97724.22;5196440;28;20210;-80
2023/02/22 04:16:30;;;;;;;11.57;9.83;;;2.00;99.90;;;2.80;100.00;97725.97;5202212;28;20250;-80
2023/02/22 04:19:05;;;;;;;10.60;9.60;;;2.10;99.90;;;2.87;100.00;97724.13;5204430;28;20649;-80
2023/02/22 04:21:38;;;;;;;11.03;10.07;;;2.20;99.90;;;2.90;100.00;97719.31;5207560;28;20300;-79
2023/02/22 04:24:13;;;;;;;9.13;8.33;;;2.20;99.90;;;2.95;100.00;97714.66;5212567;28;20348;-80
2023/02/22 04:26:47;;;;;;;10.53;9.63;;;2.20;99.90;;;2.88;100.00;97718.31;5199889;28;20198;-80
2023/02/22 04:29:20;;;;;;;10.33;9.40;;;2.20;99.90;;;2.87;100.00;97713.13;5203524;28;20194;-79
2023/02/22 04:31:53;;;;;;;10.80;9.80;;;2.20;99.90;;;2.82;100.00;97712.75;5202142;28;20626;-78
2023/02/22 04:34:27;;;;;;;12.40;11.10;;;2.20;99.90;;;2.91;100.00;97705.06;5198790;28;20283;-80
2023/02/22 04:37:01;;;;;;;12.80;11.67;;;2.20;99.90;;;2.91;100.00;97713.50;5198962;28;20206;-81
2023/02/22 04:39:35;;;;;;;11.37;10.43;;;2.30;99.90;;;2.94;100.00;97708.72;5200301;28;20208;-81
2023/02/22 04:42:09;;;;;;;11.07;10.07;;;2.20;99.90;;;2.89;100.00;97710.00;5208898;28;20233;-79
2023/02/22 04:44:42;;;;;;;11.07;10.07;;;2.30;99.90;;;2.80;100.00;97710.84;5199528;28;20309;-80
2023/02/22 04:47:16;;;;;;;12.27;10.97;;;2.20;99.90;;;2.91;100.00;97710.97;5195095;28;21298;-79
2023/02/22 04:49:49;;;;;;;11.90;10.80;;;2.20;99.90;;;2.82;100.00;97705.16;5204001;28;20202;-81
2023/02/22 04:52:22;;;;;;;11.67;10.50;;;2.20;99.90;;;2.85;100.00;97707.06;5208598;28;20734;-80
2023/02/22 04:54:57;;;;;;;13.13;11.60;;;2.20;99.90;;;2.70;100.00;97702.50;5195678;28;20249;-79
2023/02/22 04:57:30;;;;;;;11.90;10.67;;;2.10;99.90;;;2.72;100.00;97705.16;5185059;28;20220;-79
2023/02/22 05:00:05;;;;;;;12.27;11.07;;;2.10;99.90;;;2.68;100.00;97703.13;5199132;28;20265;-80
2023/02/22 05:02:39;;;;;;;11.53;10.37;;;2.10;99.90;;;2.80;100.00;97703.28;5200437;28;20281;-79
2023/02/22 05:05:14;;;;;;;12.83;11.50;;;2.20;99.90;;;2.84;100.00;97702.78;5197892;28;20610;-79
2023/02/22 05:07:48;;;;;;;11.83;10.60;;;2.20;99.90;;;2.81;100.00;97702.53;5188540;28;20204;-82
2023/02/22 05:10:23;;;;;;;12.80;11.60;;;2.30;99.90;;;2.85;100.00;97702.03;5187870;28;20198;-81
2023/02/22 05:12:56;;;;;;;13.50;11.97;;;2.20;99.90;;;2.76;100.00;97701.25;5200454;28;20781;-79
2023/02/22 05:15:30;;;;;;;13.93;12.47;;;2.20;99.90;;;2.70;100.00;97701.63;5200984;28;20279;-80
2023/02/22 05:18:03;;;;;;;12.70;11.40;;;2.10;99.90;;;2.81;100.00;97697.50;5204445;28;20287;-80
2023/02/22 05:20:37;;;;;;;13.17;11.97;;;2.20;99.90;;;2.81;100.00;97685.75;5197428;28;20201;-80
2023/02/22 05:23:10;;;;;;;13.40;12.00;;;2.20;99.90;;;2.74;100.00;97688.50;5199845;28;20225;-80
2023/02/22 05:25:45;;;;;;;12.17;10.87;;;2.10;99.90;;;2.83;100.00;97694.34;5194094;28;20629;-81
2023/02/22 05:28:19;;;;;;;12.23;11.03;;;2.20;99.90;;;2.80;100.00;97686.47;5203898;28;20681;-80
2023/02/22 05:30:56;;;;;;;12.27;11.17;;;2.20;99.90;;;2.95;100.00;97691.94;5200377;28;21476;-80
2023/02/22 05:33:30;;;;;;;11.67;10.47;;;2.30;99.90;;;2.88;100.00;97687.13;5194765;28;20225;-80
2023/02/22 05:36:03;;;;;;;11.57;10.37;;;2.30;99.90;;;2.89;100.00;97681.31;5197754;28;20210;-81
2023/02/22 05:38:42;;;;;;;11.40;10.43;;;2.20;99.90;;;2.95;100.00;97679.34;5195778;28;20252;-81
2023/02/22 05:41:17;;;;;;;10.97;9.90;;;2.30;99.90;;;2.94;100.00;97672.50;5193598;28;20287;-82
2023/02/22 05:43:50;;;;;;;12.33;10.30;;;2.30;99.90;;;2.94;100.00;97672.50;5192870;28;20223;-81
2023/02/22 05:46:24;;;;;;;10.83;9.77;;;2.30;99.90;;;2.99;100.00;97677.94;5192958;28;20291;-82
2023/02/22 05:48:57;;;;;;;12.57;10.60;;;2.40;99.90;;;3.00;100.00;97680.56;5202777;28;20676;-82
2023/02/22 05:51:30;;;;;;;10.73;9.73;;;2.40;99.90;;;3.07;100.00;97669.38;5203602;28;20221;-81
2023/02/22 05:54:04;;;;;;;10.90;9.90;;;2.40;99.90;;;3.03;100.00;97673.25;5207485;28;20202;-82
2023/02/22 05:56:39;;;;;;;12.23;10.90;;;2.40;99.90;;;3.05;100.00;97676.78;5204877;28;20238;-81
2023/02/22 05:59:12;;;;;;;10.43;9.43;;;2.40;99.90;;;3.08;100.00;97666.94;5204977;28;20271;-81
2023/02/22 06:01:45;;;;;;;10.60;9.57;;;2.40;99.90;;;3.01;100.00;97669.75;5209900;28;20277;-80
2023/02/22 06:04:19;;;;;;;11.90;10.80;;;2.40;99.90;;;3.00;100.00;97669.59;5207412;28;20203;-82
2023/02/22 06:06:52;;;;;;;11.00;10.00;;;2.30;99.90;;;3.00;100.00;97675.53;5212808;28;20206;-81
2023/02/22 06:09:25;;;;;;;11.17;10.00;;;2.30;99.90;;;3.04;100.00;97664.94;5205724;28;20207;-80
2023/02/22 06:12:00;;;;;;;11.20;10.20;;;2.40;99.90;;;3.06;100.00;97678.59;5210537;28;20221;-80
2023/02/22 06:14:33;;;;;;;10.23;9.33;;;2.30;99.90;;;3.09;100.00;97675.41;5198103;28;20222;-81
2023/02/22 06:17:07;;;;;;;10.70;9.50;;;2.30;99.90;;;3.05;100.00;97669.22;5208506;28;20201;-82
2023/02/22 06:19:40;;;;;;;10.50;9.27;;;2.30;99.90;;;3.09;100.00;97676.31;5207971;28;20580;-81
2023/02/22 06:22:18;;;;;;;9.90;8.87;;;2.20;99.90;;;3.02;100.00;97671.50;5206351;28;20239;-82
2023/02/22 06:24:51;;;;;;;10.67;9.60;;;2.10;99.90;;;2.98;100.00;97669.50;5207124;28;20225;-80
2023/02/22 06:27:31;;;;;;;11.40;9.53;;;2.10;99.90;;;2.95;100.00;97679.34;5209743;28;20210;-80
2023/02/22 06:30:06;;;;;;;10.27;9.33;;;2.10;99.90;;;2.89;100.00;97673.75;5194482;28;20320;-81
2023/02/22 06:32:39;;;;;;;10.40;9.47;;;2.10;99.90;;;2.87;100.00;97676.16;5203122;28;20243;-82
2023/02/22 06:35:14;;;;;;;13.47;9.73;;;2.00;99.90;;;2.90;100.00;97680.59;5207832;28;20286;-81
2023/02/22 06:37:48;;;;;;;11.67;10.27;;;2.00;99.90;;;2.92;100.00;97674.91;5209489;28;20274;-81
2023/02/22 06:40:21;;;;;;;10.43;9.43;;;2.00;99.90;;;2.96;100.00;97681.09;5207187;28;20234;-81
2023/02/22 06:42:57;;;;;;;9.90;8.97;;;2.00;99.90;;;2.94;100.00;97672.50;5205234;28;20300;-82
2023/02/22 06:45:30;;;;;;;10.10;9.20;;;2.00;99.90;;;2.95;100.00;97679.34;5201040;28;20218;-81
2023/02/22 06:48:04;;;;;;;8.47;7.67;;;2.10;99.90;;;3.02;100.00;97684.13;5206971;28;20212;-81
2023/02/22 06:50:37;;;;;;;9.23;8.50;;;2.10;99.90;;;3.08;100.00;97677.03;5203581;28;20275;-81
2023/02/22 06:53:11;;;;;;;10.93;10.00;;;2.20;99.90;;;3.16;100.00;97680.22;5206544;28;20231;-81
2023/02/22 06:55:44;;;;;;;10.53;9.53;;;2.20;99.90;;;3.20;100.00;97686.38;5207750;28;20202;-81
2023/02/22 06:58:19;;;;;;;8.67;7.87;;;2.30;99.90;;;3.32;100.00;97678.19;5214101;28;20219;-82
2023/02/22 07:00:53;;;;;;;8.07;7.37;;;2.40;99.90;;;3.33;100.00;97681.59;5208710;28;20279;-81
2023/02/22 07:03:26;;;;;;;8.73;8.03;;;2.40;99.90;;;3.32;99.73;97684.84;5208855;28;20218;-80
2023/02/22 07:05:59;;;;;;;8.43;7.77;;;2.40;99.90;;;3.33;99.59;97694.22;5209837;28;20611;-81
2023/02/22 07:08:33;;;;;;;8.40;7.60;;;2.40;99.90;;;3.39;99.32;97689.66;5216091;28;20527;-81
2023/02/22 07:11:06;;;;;;;8.47;7.67;;;2.40;99.90;;;3.44;99.90;97692.59;5216793;28;20198;-81
2023/02/22 07:13:41;;;;;;;9.67;8.73;;;2.50;99.90;;;3.49;100.00;97682.09;5205040;28;20238;-79
2023/02/22 07:16:14;;;;;;;8.80;8.00;;;2.60;99.90;;;3.65;100.00;97689.25;5214122;28;20208;-81
2023/02/22 07:18:48;;;;;;;8.30;7.57;;;2.70;99.90;;;3.82;99.37;97680.50;5214971;28;20208;-80
2023/02/22 07:21:21;;;;;;;9.70;8.77;;;2.80;99.90;;;3.83;98.56;97683.16;5192322;28;20544;-81
2023/02/22 07:23:57;;;;;;;8.50;7.70;;;2.80;99.90;;;3.97;97.57;97679.19;5200585;28;20231;-81
2023/02/22 07:26:31;;;;;;;9.40;8.50;;;3.00;99.90;;;4.05;97.92;97684.84;5202265;28;20225;-81
2023/02/22 07:29:06;;;;;;;9.67;8.23;;;3.10;99.90;;;4.20;98.31;97687.69;5201481;28;20705;-81
2023/02/22 07:31:39;;;;;;;9.63;8.80;;;3.20;99.90;;;4.31;97.95;97689.41;5203616;28;20694;-80
2023/02/22 07:34:13;;;;;;;10.47;9.57;;;3.30;99.90;;;4.49;97.38;97687.44;5201657;28;20247;-81
2023/02/22 07:36:48;;;;;;;10.10;9.20;;;3.50;99.90;;;4.60;97.17;97686.63;5205044;28;20215;-81
2023/02/22 07:39:21;;;;;;;9.43;8.60;;;3.60;99.90;;;4.55;97.11;97681.97;5203749;28;20205;-80
2023/02/22 07:41:55;;;;;;;11.33;10.00;;;3.70;99.90;;;4.80;97.91;97685.59;5203335;28;20237;-80
2023/02/22 07:44:29;;;;;;;9.63;8.80;;;4.00;99.90;;;5.20;95.82;97678.47;5203907;28;20255;-81
2023/02/22 07:47:03;;;;;;;9.80;9.00;;;4.30;99.90;;;5.41;94.56;97675.03;5203234;28;20623;-81
2023/02/22 07:49:36;;;;;;;9.80;8.80;;;4.50;99.90;;;5.56;93.74;97676.91;5199944;28;20209;-81
2023/02/22 07:52:11;;;;;;;9.30;8.40;;;4.60;99.90;;;5.58;92.89;97672.81;5199283;28;20288;-81
2023/02/22 07:54:46;;;;;;;10.13;9.23;;;4.70;99.90;;;5.86;92.64;97671.50;5193002;28;20773;-81
2023/02/22 07:57:20;;;;;;;10.13;9.13;;;5.00;99.90;;;6.05;91.50;97672.88;5206291;28;20275;-81
2023/02/22 07:59:54;;;;;;;11.43;9.50;;;5.10;99.90;;;6.10;90.29;97671.56;5207799;28;20252;-80
2023/02/22 08:02:28;;;;;;;11.20;10.00;;;5.20;99.90;;;6.21;89.72;97668.13;5206043;28;20704;-81
2023/02/22 08:05:01;;;;;;;17.23;12.50;;;5.30;99.90;;;6.32;89.02;97663.78;5199067;28;20226;-81
2023/02/22 08:07:34;;;;;;;15.97;12.20;;;5.50;99.90;;;6.48;88.71;97668.28;5212616;28;20264;-80
2023/02/22 08:10:10;;;;;;;12.47;10.17;;;5.60;99.90;;;6.60;88.19;97658.97;5200720;28;20213;-81
2023/02/22 08:12:44;;;;;;;10.80;9.70;;;5.70;99.90;;;6.62;87.24;97665.03;5198301;28;20224;-81
2023/02/22 08:15:22;;;;;;;10.00;9.03;;;5.70;99.90;;;6.86;86.53;97662.41;5211908;28;20210;-82
2023/02/22 08:17:56;;;;;;;9.77;8.80;;;5.90;99.90;;;6.91;85.83;97666.16;5206112;28;20484;-80
2023/02/22 08:20:30;;;;;;;10.67;9.67;;;6.00;99.90;;;6.97;86.47;97664.00;5203532;28;20206;-81
2023/02/22 08:23:04;;;;;;;10.53;9.53;;;6.10;99.90;;;7.16;85.18;97651.78;5200040;28;20226;-81
2023/02/22 08:25:38;;;;;;;11.03;9.97;;;6.20;99.90;;;7.29;84.57;97661.06;5207116;28;20251;-81
2023/02/22 08:28:14;;;;;;;10.33;9.33;;;6.40;99.90;;;7.40;84.68;97657.59;5196779;28;20634;-80
2023/02/22 08:30:49;;;;;;;10.13;9.13;;;6.60;99.90;;;7.61;84.39;97658.13;5198444;28;20291;-80
2023/02/22 08:33:36;;;;;;;10.37;9.47;;;6.80;99.90;;;7.76;84.83;97655.69;5202998;28;20224;-80
2023/02/22 08:36:10;;;;;;;10.77;9.73;;;7.00;99.90;;;7.95;82.71;97657.72;5193403;28;20202;-81
2023/02/22 08:38:43;;;;;;;11.00;9.77;;;7.20;99.90;;;8.15;83.70;97663.22;5198794;28;20198;-78
2023/02/22 08:41:16;;;;;;;9.47;8.57;;;7.40;99.90;;;8.42;82.14;97653.91;5199737;28;20649;-80
2023/02/22 08:43:50;;;;;;;9.97;9.03;;;7.70;99.90;;;8.59;81.68;97652.41;5195451;28;20221;-80
2023/02/22 08:46:25;;;;;;;11.00;9.87;;;7.90;99.90;;;8.76;80.94;97652.63;5198047;28;20222;-83
2023/02/22 08:48:58;;;;;;;9.53;8.67;;;8.10;99.90;;;9.01;81.19;97644.81;5203294;28;20747;-79
2023/02/22 08:51:35;;;;;;;9.00;8.20;;;8.40;99.90;;;9.31;80.01;97633.75;5194487;28;20310;-80
2023/02/22 08:54:08;;;;;;;10.70;9.60;;;8.60;99.90;;;9.56;78.26;97641.16;5197559;28;20202;-80
2023/02/22 08:56:41;;;;;;;10.10;9.10;;;8.90;99.90;;;9.82;77.63;97643.50;5203287;28;20285;-80
2023/02/22 08:59:15;;;;;;;10.10;8.70;;;9.10;99.90;;;10.00;76.27;97633.44;5196881;28;20233;-80
2023/02/22 09:01:49;;;;;;;9.90;8.90;;;9.30;99.90;;;10.15;76.64;97635.94;5198013;28;20778;-80
2023/02/22 09:04:23;;;;;;;10.33;9.07;;;9.40;99.90;;;10.38;75.72;97635.56;5196321;28;20225;-79
2023/02/22 09:06:56;;;;;;;10.27;9.27;;;9.60;99.90;;;10.45;76.07;97628.25;5194559;28;20302;-81
2023/02/22 09:09:30;;;;;;;9.77;8.77;;;9.70;99.90;;;10.60;75.03;97629.94;5193101;28;20206;-80
2023/02/22 09:12:03;;;;;;;13.18;11.95;;;9.80;99.90;;;10.70;75.61;97627.84;5198026;28;20245;-80
2023/02/22 09:14:37;;;;;;;8.73;8.02;;;9.90;99.90;;;10.65;75.61;97631.88;5204590;28;20222;-80
2023/02/22 09:17:12;;;;;;;8.00;7.22;;;9.90;99.90;;;10.78;75.60;97632.56;5206387;28;20752;-80
2023/02/22 09:19:45;;;;;;;9.27;8.45;;;10.00;99.90;;;10.82;75.00;97623.41;5200882;28;20205;-80
2023/02/22 09:22:18;;;;;;;12.73;9.15;;;10.10;99.90;;;10.99;73.36;97624.28;5206875;28;20225;-79
2023/02/22 09:24:52;;;;;;;14.00;10.60;;;10.20;99.90;;;11.12;73.60;97616.41;5198691;28;20198;-80
2023/02/22 09:27:27;;;;;;;11.02;9.93;;;10.40;99.90;;;11.30;73.15;97618.13;5197765;28;20281;-80
2023/02/22 09:30:01;;;;;;;10.55;9.50;;;10.60;99.90;;;11.61;72.83;97620.53;5203798;28;20196;-80
2023/02/22 09:32:36;;;;;;;9.93;8.90;;;10.90;99.90;;;11.76;72.06;97621.31;5209447;28;20222;-80
2023/02/22 09:35:11;;;;;;;10.07;9.07;;;11.10;99.90;;;11.86;71.21;97618.41;5192481;28;20600;-80
2023/02/22 09:37:45;;;;;;;10.40;9.40;;;11.20;99.90;;;12.05;71.32;97620.16;5192741;28;21673;-80
2023/02/22 09:40:23;;;;;;;10.32;9.32;;;11.40;99.90;;;12.10;70.36;97613.56;5201119;28;20210;-81
2023/02/22 09:43:13;;;;;;;10.48;9.32;;;11.50;99.90;;;12.25;68.87;97612.53;5194823;28;20224;-82
2023/02/22 09:46:05;;;;;;;9.95;8.95;;;11.60;99.90;;;12.45;70.03;97611.75;5196401;28;20267;-81
2023/02/22 09:48:57;;;;;;;10.35;9.38;;;11.80;99.90;;;12.61;68.87;97613.31;5194644;28;20201;-81
2023/02/22 09:51:39;;;;;;;10.20;9.20;;;12.00;99.90;;;12.79;68.98;97610.69;5196521;28;20509;-82
2023/02/22 09:54:21;;;;;;;10.95;9.43;;;12.20;99.90;;;12.82;67.95;97606.59;5191679;28;20685;-81
2023/02/22 09:56:58;;;;;;;9.38;8.48;;;12.20;99.90;;;12.91;67.58;97607.81;5191449;28;20277;-81
2023/02/22 09:59:39;;;;;;;10.32;9.43;;;12.20;99.90;;;12.91;66.29;97605.25;5192431;28;20224;-80
2023/02/22 10:02:25;;;;;;;10.68;9.68;;;12.20;99.90;;;13.01;65.99;97610.81;5190150;28;20221;-81
2023/02/22 10:05:07;;;;;;;10.07;8.75;;;12.20;99.90;;;13.07;67.35;97608.50;5201886;28;20658;-81
2023/02/22 10:07:48;;;;;;;10.48;9.07;;;12.20;99.90;;;13.17;65.42;97616.63;5199599;28;20289;-81
2023/02/22 10:10:25;;;;;;;10.32;9.27;;;12.20;99.90;;;13.16;65.86;97608.06;5197425;28;20298;-81
2023/02/22 10:13:08;;;;;;;10.30;9.18;;;12.20;99.90;;;13.28;64.38;97620.56;5193262;28;21294;-80
2023/02/22 10:15:51;;;;;;;10.55;9.45;;;12.30;99.90;;;13.24;64.25;97606.66;5197131;28;20197;-80
2023/02/22 10:19:09;;;;;;;11.25;9.98;;;12.30;99.90;;;13.21;63.57;97603.97;5201457;28;20214;-82
2023/02/22 10:22:18;;;;;;;10.20;9.27;;;12.40;99.90;;;13.19;64.75;97612.41;5198813;28;20209;-82
2023/02/22 10:25:00;;;;;;;10.82;9.82;;;12.30;99.90;;;13.22;64.41;97609.97;5190493;28;20288;-81
2023/02/22 10:27:37;;;;;;;10.23;9.32;;;12.30;99.90;;;13.20;64.47;97604.81;5195371;28;20210;-81
2023/02/22 10:30:20;;;;;;;10.60;9.52;;;12.40;99.90;;;13.23;63.32;97611.75;5196372;28;20341;-83
2023/02/22 10:33:05;;;;;;;9.15;8.25;;;12.40;99.90;;;13.33;62.93;97603.66;5199638;28;20225;-82
2023/02/22 10:35:40;;;;;;;9.40;8.52;;;12.50;99.90;;;13.54;61.59;97602.81;5199140;28;20627;-82
2023/02/22 10:38:19;;;;;;;9.75;8.82;;;12.70;99.90;;;13.59;61.27;97596.16;5203689;28;20659;-80
2023/02/22 10:40:59;;;;;;;9.15;7.38;;;12.80;99.90;;;13.68;60.49;97597.41;5197362;28;20213;-80
2023/02/22 10:43:33;;;;;;;8.60;7.47;;;12.90;99.90;;;13.97;59.28;97595.13;5196900;28;20222;-81
2023/02/22 10:46:11;;;;;;;8.73;7.93;;;13.10;99.90;;;13.96;58.43;97598.50;5204311;28;20204;-81
2023/02/22 10:48:48;;;;;;;9.18;8.27;;;13.10;99.90;;;14.09;59.06;97594.75;5193891;28;20197;-82
2023/02/22 10:51:21;;;;;;;8.38;7.22;;;13.20;99.90;;;14.24;57.66;97590.19;5190971;28;20255;-81
2023/02/22 10:54:18;;;;;;;8.90;7.38;;;13.40;99.90;;;14.22;57.78;97589.22;5190583;28;20240;-82
2023/02/22 10:56:54;;;;;;;10.15;7.72;;;13.50;99.90;;;14.49;57.63;97583.41;5194025;28;20374;-81
2023/02/22 10:59:32;;;;;;;8.35;7.55;;;13.70;99.90;;;14.53;55.85;97582.72;5192299;28;20809;-81
2023/02/22 11:02:18;;;;;;;8.90;6.97;;;13.80;99.90;;;14.70;55.32;97576.50;5196414;28;20275;-81